EST,Max TemperatureF,Mean TemperatureF,Min TemperatureF,Max Dew PointF,MeanDew PointF,Min DewpointF,Max Humidity, Mean Humidity, Min Humidity, Max Sea Level PressureIn, Mean Sea Level PressureIn, Min Sea Level PressureIn, Max VisibilityMiles, Mean VisibilityMiles, Min VisibilityMiles, Max Wind SpeedMPH, Mean Wind SpeedMPH, Max Gust SpeedMPH,PrecipitationIn, CloudCover, Events, WindDirDegrees
2013-1-1,35,34,32,34,33,29,100,91,82,30.12,30.04,29.99,8,2,0,8,1,10,0.25,8,Fog-Rain,350
2013-1-2,35,31,27,31,26,19,100,80,59,30.23,30.15,30.06,10,6,0,7,1,10,0.01,5,Fog-Snow,18
2013-1-3,41,32,23,23,20,17,96,70,44,30.36,30.27,30.21,10,10,9,10,3,15,0.00,0,,281
2013-1-4,39,30,21,24,21,18,88,70,52,30.42,30.38,30.33,10,10,10,13,3,20,0.00,3,,244
2013-1-5,39,32,24,26,23,19,84,66,51,30.43,30.33,30.22,10,10,10,6,2,,0.00,2,Rain,209
2013-1-6,45,38,31,30,27,21,70,64,57,30.34,30.18,30.08,10,10,10,16,5,23,0.00,8,,275
2013-1-7,44,36,27,23,21,19,81,62,43,30.48,30.38,30.27,10,10,9,8,1,13,0.00,3,,146
2013-1-8,55,43,31,36,28,22,78,60,41,30.40,30.31,30.28,10,10,10,7,2,12,0.00,0,,192
2013-1-9,52,47,42,49,46,34,100,80,60,30.51,30.40,30.28,10,5,0,8,2,13,0.16,6,Fog-Rain,234
2013-1-10,57,50,42,47,43,41,100,86,71,30.52,30.42,30.16,10,5,0,9,4,14,T,5,Fog-Rain,62
2013-1-11,65,61,56,57,54,48,93,80,67,30.12,30.04,29.99,10,8,1,13,6,23,0.24,6,Rain,193
2013-1-12,66,62,57,61,58,54,94,88,78,30.11,30.04,29.94,10,9,2,6,3,,0.11,5,Rain,197
2013-1-13,66,54,42,57,54,41,100,82,63,30.09,29.97,29.89,10,5,0,20,5,32,0.85,7,Fog-Rain,254
2013-1-14,42,37,31,39,32,27,100,91,82,30.36,30.25,30.12,10,7,2,15,4,25,0.24,8,Rain,340
2013-1-15,32,31,29,31,30,28,100,96,92,30.32,30.16,30.01,6,2,0,8,3,17,0.68,8,Fog-Rain,39
2013-1-16,35,33,31,34,31,30,100,95,89,30.12,30.01,29.92,7,2,0,9,2,14,0.76,8,Fog-Rain,238
2013-1-17,34,31,28,34,29,25,100,88,75,30.35,30.16,30.07,10,8,1,12,3,20,0.00,5,,356
2013-1-18,41,33,24,26,23,19,92,70,48,30.55,30.47,30.37,10,10,7,8,3,12,0.00,2,,252
2013-1-19,54,43,32,26,23,18,63,48,32,30.35,30.22,30.07,10,10,10,13,6,37,0.00,0,,210
2013-1-20,49,40,31,29,20,8,64,46,28,30.17,30.13,30.06,10,10,10,15,6,28,0.00,0,,255
2013-1-21,38,29,19,17,9,-1,74,53,32,30.21,30.13,30.06,10,10,10,20,7,29,0.00,2,,267
2013-1-22,24,17,10,2,-2,-4,63,47,31,30.38,30.32,30.21,10,10,10,16,6,23,0.00,1,,284
2013-1-23,33,23,12,18,6,-1,64,50,36,30.40,30.29,30.05,10,7,0,10,3,18,0.00,6,,248
2013-1-24,32,25,18,17,5,-4,61,45,29,30.51,30.39,30.12,10,10,10,16,6,23,0.00,1,,342
2013-1-25,31,25,19,29,21,4,100,75,49,30.40,30.11,30.00,10,4,0,9,3,17,0.11,7,Fog-Rain-Snow,263
2013-1-26,29,26,22,27,24,20,100,91,81,30.45,30.28,30.17,10,6,3,12,3,16,0.00,5,,236
2013-1-27,43,32,21,37,26,19,92,77,62,30.44,30.37,30.24,10,8,5,8,2,15,0.11,4,Rain,145
2013-1-28,60,50,39,52,45,35,96,78,60,30.25,30.18,30.15,10,6,0,13,5,21,0.34,7,Fog-Rain,208
2013-1-29,69,60,51,54,50,47,89,71,53,30.15,30.02,29.77,10,10,10,13,6,22,0.03,5,,198
2013-1-30,68,60,52,57,51,31,100,82,63,29.73,29.56,29.39,10,5,0,32,6,46,1.50,8,Fog-Rain,215
2013-1-31,34,30,26,30,24,19,92,76,59,29.98,29.88,29.60,10,5,1,24,8,38,0.06,8,Snow,246